sensor_id;sensor_type;location;lat;lon;timestamp;P1;durP1;ratioP1;P2;durP2;ratioP2
33926;SDS011;20485;50.992;5.550;2024-03-23T00:52:54;17.73;;;3.13;;
33926;SDS011;20485;50.992;5.550;2024-03-23T00:55:20;11.98;;;2.30;;
33926;SDS011;20485;50.992;5.550;2024-03-23T00:57:45;12.00;;;3.10;;
33926;SDS011;20485;50.992;5.550;2024-03-23T01:00:12;17.90;;;2.75;;
33926;SDS011;20485;50.992;5.550;2024-03-23T01:02:38;15.88;;;2.97;;
33926;SDS011;20485;50.992;5.550;2024-03-23T01:05:03;18.42;;;3.22;;
33926;SDS011;20485;50.992;5.550;2024-03-23T01:07:29;13.82;;;2.97;;
33926;SDS011;20485;50.992;5.550;2024-03-23T01:09:55;14.73;;;2.60;;
33926;SDS011;20485;50.992;5.550;2024-03-23T01:12:20;17.23;;;2.65;;
33926;SDS011;20485;50.992;5.550;2024-03-23T01:14:46;14.00;;;2.53;;
33926;SDS011;20485;50.992;5.550;2024-03-23T01:17:12;17.10;;;2.92;;
33926;SDS011;20485;50.992;5.550;2024-03-23T01:19:38;15.10;;;2.67;;
33926;SDS011;20485;50.992;5.550;2024-03-23T01:22:04;7.32;;;2.50;;
33926;SDS011;20485;50.992;5.550;2024-03-23T01:24:30;10.85;;;3.22;;
33926;SDS011;20485;50.992;5.550;2024-03-23T01:26:55;12.10;;;2.67;;
33926;SDS011;20485;50.992;5.550;2024-03-23T01:29:21;13.23;;;2.50;;
33926;SDS011;20485;50.992;5.550;2024-03-23T01:31:47;19.20;;;3.20;;
33926;SDS011;20485;50.992;5.550;2024-03-23T01:34:12;23.67;;;3.58;;
33926;SDS011;20485;50.992;5.550;2024-03-23T01:36:38;11.48;;;2.50;;
33926;SDS011;20485;50.992;5.550;2024-03-23T01:39:04;10.75;;;2.67;;
33926;SDS011;20485;50.992;5.550;2024-03-23T01:41:29;16.65;;;3.30;;
33926;SDS011;20485;50.992;5.550;2024-03-23T01:43:55;17.45;;;3.22;;
33926;SDS011;20485;50.992;5.550;2024-03-23T01:46:21;28.77;;;3.47;;
33926;SDS011;20485;50.992;5.550;2024-03-23T01:48:47;14.05;;;3.33;;
33926;SDS011;20485;50.992;5.550;2024-03-23T01:51:13;14.85;;;2.65;;
33926;SDS011;20485;50.992;5.550;2024-03-23T01:53:39;18.63;;;2.65;;
33926;SDS011;20485;50.992;5.550;2024-03-23T01:56:05;14.85;;;3.25;;
33926;SDS011;20485;50.992;5.550;2024-03-23T01:58:30;14.43;;;2.97;;
33926;SDS011;20485;50.992;5.550;2024-03-23T02:00:59;17.38;;;2.65;;
33926;SDS011;20485;50.992;5.550;2024-03-23T02:03:25;18.00;;;3.13;;
33926;SDS011;20485;50.992;5.550;2024-03-23T02:05:52;16.75;;;3.10;;
33926;SDS011;20485;50.992;5.550;2024-03-23T02:08:21;18.95;;;3.10;;
33926;SDS011;20485;50.992;5.550;2024-03-23T02:10:48;17.75;;;3.47;;
33926;SDS011;20485;50.992;5.550;2024-03-23T02:13:14;16.63;;;3.28;;
33926;SDS011;20485;50.992;5.550;2024-03-23T02:15:41;24.70;;;2.72;;
33926;SDS011;20485;50.992;5.550;2024-03-23T02:18:07;15.55;;;2.95;;
33926;SDS011;20485;50.992;5.550;2024-03-23T02:20:34;21.35;;;2.63;;
33926;SDS011;20485;50.992;5.550;2024-03-23T02:23:00;22.55;;;3.42;;
33926;SDS011;20485;50.992;5.550;2024-03-23T02:25:26;21.70;;;3.35;;
33926;SDS011;20485;50.992;5.550;2024-03-23T02:27:51;20.40;;;3.25;;
33926;SDS011;20485;50.992;5.550;2024-03-23T02:30:19;14.90;;;2.70;;
33926;SDS011;20485;50.992;5.550;2024-03-23T02:32:45;17.10;;;3.60;;
33926;SDS011;20485;50.992;5.550;2024-03-23T02:35:11;23.70;;;4.00;;
33926;SDS011;20485;50.992;5.550;2024-03-23T02:37:36;6.90;;;2.28;;
33926;SDS011;20485;50.992;5.550;2024-03-23T02:40:02;15.18;;;3.17;;
33926;SDS011;20485;50.992;5.550;2024-03-23T02:42:28;24.50;;;3.72;;
33926;SDS011;20485;50.992;5.550;2024-03-23T02:44:54;16.92;;;3.20;;
33926;SDS011;20485;50.992;5.550;2024-03-23T02:47:19;19.35;;;3.55;;
33926;SDS011;20485;50.992;5.550;2024-03-23T02:49:45;18.20;;;3.15;;
33926;SDS011;20485;50.992;5.550;2024-03-23T02:52:11;15.13;;;3.33;;
33926;SDS011;20485;50.992;5.550;2024-03-23T02:54:36;29.48;;;3.78;;
33926;SDS011;20485;50.992;5.550;2024-03-23T02:57:02;15.30;;;3.35;;
33926;SDS011;20485;50.992;5.550;2024-03-23T02:59:28;15.98;;;3.03;;
33926;SDS011;20485;50.992;5.550;2024-03-23T03:01:53;23.35;;;4.15;;
33926;SDS011;20485;50.992;5.550;2024-03-23T03:04:19;30.52;;;3.72;;
33926;SDS011;20485;50.992;5.550;2024-03-23T03:06:46;20.35;;;3.50;;
33926;SDS011;20485;50.992;5.550;2024-03-23T03:09:12;19.45;;;3.85;;
33926;SDS011;20485;50.992;5.550;2024-03-23T03:11:38;21.25;;;3.42;;
33926;SDS011;20485;50.992;5.550;2024-03-23T03:14:04;15.88;;;3.22;;
33926;SDS011;20485;50.992;5.550;2024-03-23T03:16:32;18.50;;;4.00;;
33926;SDS011;20485;50.992;5.550;2024-03-23T03:18:57;15.93;;;3.38;;
33926;SDS011;20485;50.992;5.550;2024-03-23T03:21:23;23.20;;;3.72;;
33926;SDS011;20485;50.992;5.550;2024-03-23T03:23:49;20.02;;;4.18;;
33926;SDS011;20485;50.992;5.550;2024-03-23T03:26:16;11.50;;;3.38;;
33926;SDS011;20485;50.992;5.550;2024-03-23T03:28:42;28.48;;;4.05;;
33926;SDS011;20485;50.992;5.550;2024-03-23T03:31:13;15.20;;;4.05;;
33926;SDS011;20485;50.992;5.550;2024-03-23T03:33:42;28.63;;;4.22;;
33926;SDS011;20485;50.992;5.550;2024-03-23T03:36:08;17.92;;;3.53;;
33926;SDS011;20485;50.992;5.550;2024-03-23T03:38:33;29.13;;;4.10;;
33926;SDS011;20485;50.992;5.550;2024-03-23T03:41:03;20.30;;;4.05;;
33926;SDS011;20485;50.992;5.550;2024-03-23T03:43:29;24.42;;;3.60;;
33926;SDS011;20485;50.992;5.550;2024-03-23T03:45:55;15.68;;;3.95;;
33926;SDS011;20485;50.992;5.550;2024-03-23T03:48:23;19.58;;;4.30;;
33926;SDS011;20485;50.992;5.550;2024-03-23T03:50:49;16.08;;;4.25;;
33926;SDS011;20485;50.992;5.550;2024-03-23T03:53:15;20.08;;;4.35;;
33926;SDS011;20485;50.992;5.550;2024-03-23T03:55:41;28.83;;;3.92;;
33926;SDS011;20485;50.992;5.550;2024-03-23T03:58:06;20.17;;;4.65;;
33926;SDS011;20485;50.992;5.550;2024-03-23T04:00:32;18.35;;;4.35;;
33926;SDS011;20485;50.992;5.550;2024-03-23T04:02:58;26.85;;;4.40;;
33926;SDS011;20485;50.992;5.550;2024-03-23T04:05:23;19.88;;;4.75;;
33926;SDS011;20485;50.992;5.550;2024-03-23T04:07:49;23.20;;;5.70;;
33926;SDS011;20485;50.992;5.550;2024-03-23T04:10:15;17.90;;;5.15;;
33926;SDS011;20485;50.992;5.550;2024-03-23T04:12:41;30.95;;;4.55;;
33926;SDS011;20485;50.992;5.550;2024-03-23T04:15:08;17.67;;;3.88;;
33926;SDS011;20485;50.992;5.550;2024-03-23T04:17:34;16.52;;;3.30;;
33926;SDS011;20485;50.992;5.550;2024-03-23T04:20:00;17.20;;;3.80;;
33926;SDS011;20485;50.992;5.550;2024-03-23T04:22:27;18.05;;;4.05;;
33926;SDS011;20485;50.992;5.550;2024-03-23T04:24:53;33.30;;;4.63;;
33926;SDS011;20485;50.992;5.550;2024-03-23T04:27:20;18.98;;;4.10;;
33926;SDS011;20485;50.992;5.550;2024-03-23T04:29:48;19.88;;;3.28;;
33926;SDS011;20485;50.992;5.550;2024-03-23T04:32:20;12.77;;;4.13;;
33926;SDS011;20485;50.992;5.550;2024-03-23T04:34:46;21.40;;;4.47;;
33926;SDS011;20485;50.992;5.550;2024-03-23T04:37:11;18.08;;;4.43;;
33926;SDS011;20485;50.992;5.550;2024-03-23T04:39:37;22.70;;;4.03;;
33926;SDS011;20485;50.992;5.550;2024-03-23T04:42:03;18.13;;;3.58;;
33926;SDS011;20485;50.992;5.550;2024-03-23T04:44:30;23.67;;;4.07;;
33926;SDS011;20485;50.992;5.550;2024-03-23T04:46:56;20.58;;;4.45;;
33926;SDS011;20485;50.992;5.550;2024-03-23T04:49:22;16.42;;;4.57;;
33926;SDS011;20485;50.992;5.550;2024-03-23T04:51:48;19.67;;;3.63;;
33926;SDS011;20485;50.992;5.550;2024-03-23T04:54:13;23.73;;;4.45;;
33926;SDS011;20485;50.992;5.550;2024-03-23T04:56:40;23.33;;;4.93;;
33926;SDS011;20485;50.992;5.550;2024-03-23T04:59:05;25.58;;;4.13;;
33926;SDS011;20485;50.992;5.550;2024-03-23T05:01:31;18.52;;;4.60;;
33926;SDS011;20485;50.992;5.550;2024-03-23T05:03:57;18.90;;;4.35;;
33926;SDS011;20485;50.992;5.550;2024-03-23T05:06:24;21.73;;;4.32;;
33926;SDS011;20485;50.992;5.550;2024-03-23T05:08:50;27.23;;;4.60;;
33926;SDS011;20485;50.992;5.550;2024-03-23T05:11:16;22.33;;;4.20;;
33926;SDS011;20485;50.992;5.550;2024-03-23T05:13:42;20.55;;;4.18;;
33926;SDS011;20485;50.992;5.550;2024-03-23T05:16:07;24.77;;;4.93;;
33926;SDS011;20485;50.992;5.550;2024-03-23T05:18:33;80.20;;;7.05;;
33926;SDS011;20485;50.992;5.550;2024-03-23T05:20:59;22.15;;;3.80;;
33926;SDS011;20485;50.992;5.550;2024-03-23T05:23:25;26.20;;;5.03;;
33926;SDS011;20485;50.992;5.550;2024-03-23T05:25:52;13.93;;;4.72;;
33926;SDS011;20485;50.992;5.550;2024-03-23T05:28:18;16.77;;;4.70;;
33926;SDS011;20485;50.992;5.550;2024-03-23T05:30:44;25.55;;;5.15;;
33926;SDS011;20485;50.992;5.550;2024-03-23T05:33:14;21.15;;;5.63;;
33926;SDS011;20485;50.992;5.550;2024-03-23T05:35:40;17.88;;;5.47;;
33926;SDS011;20485;50.992;5.550;2024-03-23T05:38:06;21.17;;;5.72;;
33926;SDS011;20485;50.992;5.550;2024-03-23T05:40:31;41.75;;;5.60;;
33926;SDS011;20485;50.992;5.550;2024-03-23T05:42:57;20.77;;;5.90;;
33926;SDS011;20485;50.992;5.550;2024-03-23T05:45:23;21.52;;;5.70;;
33926;SDS011;20485;50.992;5.550;2024-03-23T05:47:48;17.92;;;5.95;;
33926;SDS011;20485;50.992;5.550;2024-03-23T05:50:14;30.27;;;8.25;;
33926;SDS011;20485;50.992;5.550;2024-03-23T05:52:40;19.88;;;6.88;;
33926;SDS011;20485;50.992;5.550;2024-03-23T05:55:07;27.02;;;6.55;;
33926;SDS011;20485;50.992;5.550;2024-03-23T05:57:33;29.42;;;8.00;;
33926;SDS011;20485;50.992;5.550;2024-03-23T05:59:58;27.65;;;8.00;;
33926;SDS011;20485;50.992;5.550;2024-03-23T06:02:24;30.90;;;6.68;;
33926;SDS011;20485;50.992;5.550;2024-03-23T06:04:50;33.40;;;8.38;;
33926;SDS011;20485;50.992;5.550;2024-03-23T06:07:15;34.08;;;8.75;;
33926;SDS011;20485;50.992;5.550;2024-03-23T06:09:41;27.92;;;8.57;;
33926;SDS011;20485;50.992;5.550;2024-03-23T06:12:07;32.40;;;10.07;;
33926;SDS011;20485;50.992;5.550;2024-03-23T06:14:34;30.88;;;8.40;;
33926;SDS011;20485;50.992;5.550;2024-03-23T06:17:00;24.50;;;9.43;;
33926;SDS011;20485;50.992;5.550;2024-03-23T06:19:27;23.27;;;9.20;;
33926;SDS011;20485;50.992;5.550;2024-03-23T06:21:53;27.58;;;8.70;;
33926;SDS011;20485;50.992;5.550;2024-03-23T06:24:20;18.27;;;7.65;;
33926;SDS011;20485;50.992;5.550;2024-03-23T06:26:46;15.02;;;6.75;;
33926;SDS011;20485;50.992;5.550;2024-03-23T06:29:12;18.77;;;7.00;;
33926;SDS011;20485;50.992;5.550;2024-03-23T06:31:38;15.48;;;6.18;;
33926;SDS011;20485;50.992;5.550;2024-03-23T06:34:04;20.33;;;7.68;;
33926;SDS011;20485;50.992;5.550;2024-03-23T06:36:29;15.23;;;6.13;;
33926;SDS011;20485;50.992;5.550;2024-03-23T06:38:56;20.60;;;7.25;;
33926;SDS011;20485;50.992;5.550;2024-03-23T06:41:21;21.73;;;6.28;;
33926;SDS011;20485;50.992;5.550;2024-03-23T06:43:47;15.82;;;6.05;;
33926;SDS011;20485;50.992;5.550;2024-03-23T06:46:13;21.30;;;6.45;;
33926;SDS011;20485;50.992;5.550;2024-03-23T06:48:39;20.30;;;6.40;;
33926;SDS011;20485;50.992;5.550;2024-03-23T06:51:04;23.80;;;7.38;;
33926;SDS011;20485;50.992;5.550;2024-03-23T06:53:31;18.23;;;6.35;;
33926;SDS011;20485;50.992;5.550;2024-03-23T06:55:57;17.55;;;6.70;;
33926;SDS011;20485;50.992;5.550;2024-03-23T06:58:23;18.42;;;7.20;;
33926;SDS011;20485;50.992;5.550;2024-03-23T07:00:50;26.63;;;7.82;;
33926;SDS011;20485;50.992;5.550;2024-03-23T07:03:19;24.70;;;8.98;;
33926;SDS011;20485;50.992;5.550;2024-03-23T07:05:46;29.00;;;9.00;;
33926;SDS011;20485;50.992;5.550;2024-03-23T07:08:12;25.58;;;9.20;;
33926;SDS011;20485;50.992;5.550;2024-03-23T07:10:40;27.35;;;10.32;;
33926;SDS011;20485;50.992;5.550;2024-03-23T07:13:06;26.38;;;9.77;;
33926;SDS011;20485;50.992;5.550;2024-03-23T07:15:32;34.35;;;9.88;;
33926;SDS011;20485;50.992;5.550;2024-03-23T07:17:58;40.75;;;10.48;;
33926;SDS011;20485;50.992;5.550;2024-03-23T07:20:24;41.38;;;10.38;;
33926;SDS011;20485;50.992;5.550;2024-03-23T07:22:49;37.80;;;9.40;;
33926;SDS011;20485;50.992;5.550;2024-03-23T07:25:15;23.05;;;9.43;;
33926;SDS011;20485;50.992;5.550;2024-03-23T07:27:42;33.83;;;9.05;;
33926;SDS011;20485;50.992;5.550;2024-03-23T07:30:07;24.30;;;8.43;;
33926;SDS011;20485;50.992;5.550;2024-03-23T07:32:33;34.72;;;8.15;;
33926;SDS011;20485;50.992;5.550;2024-03-23T07:35:00;37.92;;;8.68;;
33926;SDS011;20485;50.992;5.550;2024-03-23T07:37:25;26.80;;;7.80;;
33926;SDS011;20485;50.992;5.550;2024-03-23T07:39:51;24.00;;;8.00;;
33926;SDS011;20485;50.992;5.550;2024-03-23T07:42:17;25.98;;;7.32;;
33926;SDS011;20485;50.992;5.550;2024-03-23T07:44:42;26.00;;;8.05;;
33926;SDS011;20485;50.992;5.550;2024-03-23T07:47:08;24.27;;;7.00;;
33926;SDS011;20485;50.992;5.550;2024-03-23T07:49:33;28.60;;;7.38;;
33926;SDS011;20485;50.992;5.550;2024-03-23T07:51:59;33.67;;;6.70;;
33926;SDS011;20485;50.992;5.550;2024-03-23T07:54:24;28.35;;;6.32;;
33926;SDS011;20485;50.992;5.550;2024-03-23T07:56:50;21.15;;;6.35;;
33926;SDS011;20485;50.992;5.550;2024-03-23T07:59:16;12.80;;;4.68;;
33926;SDS011;20485;50.992;5.550;2024-03-23T08:01:43;23.23;;;5.32;;
33926;SDS011;20485;50.992;5.550;2024-03-23T08:04:09;25.00;;;5.63;;
33926;SDS011;20485;50.992;5.550;2024-03-23T08:06:34;18.95;;;5.90;;
33926;SDS011;20485;50.992;5.550;2024-03-23T08:09:00;19.63;;;5.10;;
33926;SDS011;20485;50.992;5.550;2024-03-23T08:11:26;27.65;;;5.45;;
33926;SDS011;20485;50.992;5.550;2024-03-23T08:13:52;25.40;;;5.88;;
33926;SDS011;20485;50.992;5.550;2024-03-23T08:16:18;21.63;;;5.30;;
33926;SDS011;20485;50.992;5.550;2024-03-23T08:18:44;24.85;;;4.40;;
33926;SDS011;20485;50.992;5.550;2024-03-23T08:21:10;28.50;;;5.05;;
33926;SDS011;20485;50.992;5.550;2024-03-23T08:23:36;21.33;;;3.75;;
33926;SDS011;20485;50.992;5.550;2024-03-23T08:26:09;16.70;;;3.70;;
33926;SDS011;20485;50.992;5.550;2024-03-23T08:31:58;14.23;;;3.78;;
33926;SDS011;20485;50.992;5.550;2024-03-23T08:34:25;10.25;;;2.95;;
33926;SDS011;20485;50.992;5.550;2024-03-23T08:36:51;20.38;;;2.67;;
33926;SDS011;20485;50.992;5.550;2024-03-23T08:39:17;16.98;;;2.88;;
33926;SDS011;20485;50.992;5.550;2024-03-23T08:41:42;17.40;;;2.53;;
33926;SDS011;20485;50.992;5.550;2024-03-23T08:44:11;13.30;;;2.83;;
33926;SDS011;20485;50.992;5.550;2024-03-23T08:46:36;17.88;;;3.30;;
33926;SDS011;20485;50.992;5.550;2024-03-23T08:49:02;13.02;;;2.78;;
33926;SDS011;20485;50.992;5.550;2024-03-23T08:51:27;21.92;;;3.65;;
33926;SDS011;20485;50.992;5.550;2024-03-23T08:53:53;14.55;;;3.65;;
33926;SDS011;20485;50.992;5.550;2024-03-23T08:56:19;11.23;;;2.47;;
33926;SDS011;20485;50.992;5.550;2024-03-23T08:58:44;15.23;;;2.70;;
33926;SDS011;20485;50.992;5.550;2024-03-23T09:01:11;14.40;;;2.67;;
33926;SDS011;20485;50.992;5.550;2024-03-23T09:03:40;15.30;;;2.72;;
33926;SDS011;20485;50.992;5.550;2024-03-23T09:06:15;12.00;;;2.20;;
33926;SDS011;20485;50.992;5.550;2024-03-23T09:08:42;18.60;;;2.80;;
33926;SDS011;20485;50.992;5.550;2024-03-23T09:11:08;13.55;;;3.05;;
33926;SDS011;20485;50.992;5.550;2024-03-23T14:37:49;10.00;;;1.90;;
33926;SDS011;20485;50.992;5.550;2024-03-23T14:40:15;6.82;;;2.08;;
33926;SDS011;20485;50.992;5.550;2024-03-23T14:42:41;5.65;;;1.63;;
33926;SDS011;20485;50.992;5.550;2024-03-23T14:45:06;4.95;;;1.73;;
33926;SDS011;20485;50.992;5.550;2024-03-23T14:47:32;12.43;;;2.75;;
33926;SDS011;20485;50.992;5.550;2024-03-23T14:49:58;10.55;;;1.92;;
33926;SDS011;20485;50.992;5.550;2024-03-23T14:52:24;9.13;;;2.08;;
33926;SDS011;20485;50.992;5.550;2024-03-23T14:54:49;7.43;;;1.98;;
33926;SDS011;20485;50.992;5.550;2024-03-23T14:57:15;8.98;;;2.67;;
33926;SDS011;20485;50.992;5.550;2024-03-23T14:59:41;6.50;;;2.35;;
33926;SDS011;20485;50.992;5.550;2024-03-23T15:02:09;7.63;;;2.22;;
33926;SDS011;20485;50.992;5.550;2024-03-23T15:04:37;6.93;;;2.15;;
33926;SDS011;20485;50.992;5.550;2024-03-23T15:07:05;6.30;;;1.98;;
33926;SDS011;20485;50.992;5.550;2024-03-23T15:09:31;7.82;;;2.58;;
33926;SDS011;20485;50.992;5.550;2024-03-23T15:11:57;6.78;;;1.60;;
33926;SDS011;20485;50.992;5.550;2024-03-23T15:14:23;5.85;;;1.85;;
33926;SDS011;20485;50.992;5.550;2024-03-23T15:16:49;4.10;;;1.90;;
33926;SDS011;20485;50.992;5.550;2024-03-23T15:19:16;5.28;;;1.80;;
33926;SDS011;20485;50.992;5.550;2024-03-23T15:21:42;7.40;;;2.13;;
33926;SDS011;20485;50.992;5.550;2024-03-23T15:24:08;3.90;;;1.42;;
33926;SDS011;20485;50.992;5.550;2024-03-23T15:26:36;5.43;;;1.83;;
33926;SDS011;20485;50.992;5.550;2024-03-23T15:29:02;5.32;;;1.70;;
33926;SDS011;20485;50.992;5.550;2024-03-23T15:31:35;5.35;;;1.70;;
33926;SDS011;20485;50.992;5.550;2024-03-23T15:34:00;9.23;;;1.95;;
33926;SDS011;20485;50.992;5.550;2024-03-23T15:36:26;3.22;;;1.40;;
33926;SDS011;20485;50.992;5.550;2024-03-23T15:38:52;7.95;;;1.95;;
33926;SDS011;20485;50.992;5.550;2024-03-23T15:41:19;7.88;;;2.00;;
33926;SDS011;20485;50.992;5.550;2024-03-23T15:43:48;6.35;;;1.45;;
33926;SDS011;20485;50.992;5.550;2024-03-23T15:46:15;3.80;;;1.63;;
33926;SDS011;20485;50.992;5.550;2024-03-23T15:48:42;6.47;;;1.67;;
33926;SDS011;20485;50.992;5.550;2024-03-23T15:51:11;6.78;;;1.60;;
33926;SDS011;20485;50.992;5.550;2024-03-23T15:53:37;6.78;;;1.65;;
33926;SDS011;20485;50.992;5.550;2024-03-23T15:56:03;3.33;;;1.13;;
33926;SDS011;20485;50.992;5.550;2024-03-23T15:58:30;5.70;;;1.80;;
33926;SDS011;20485;50.992;5.550;2024-03-23T16:00:57;6.05;;;1.63;;
33926;SDS011;20485;50.992;5.550;2024-03-23T16:03:24;4.60;;;1.33;;
33926;SDS011;20485;50.992;5.550;2024-03-23T16:05:56;5.18;;;1.50;;
33926;SDS011;20485;50.992;5.550;2024-03-23T16:08:23;4.75;;;1.40;;
33926;SDS011;20485;50.992;5.550;2024-03-23T16:10:49;10.20;;;1.88;;
33926;SDS011;20485;50.992;5.550;2024-03-23T17:59:03;10.27;;;2.60;;
